Time;durP1;ratioP1;P1;durP2;ratioP2;P2;SDS_P1;SDS_P2;PMS_P1;PMS_P2;Temp;Humidity;BMP_temperature;BMP_pressure;BME280_temperature;BME280_humidity;BME280_pressure;Samples;Min_cycle;Max_cycle;Signal;HPM_P1;HPM_P2
2022/08/17 17:20:49;;;;;;;12.15;7.78;;;21.70;99.90;;;;;;5069850;28;20388;-45
2022/08/17 17:23:16;;;;;;;8.43;7.50;;;21.70;99.90;;;;;;5057221;28;20477;-47
2022/08/17 17:25:45;;;;;;;10.95;7.25;;;21.80;99.90;;;;;;5050327;28;20091;-53
2022/08/17 17:28:14;;;;;;;9.25;7.30;;;21.80;99.90;;;;;;5055261;28;20454;-47
2022/08/17 17:30:41;;;;;;;8.75;7.82;;;21.80;99.90;;;;;;5044014;28;20041;-48
2022/08/17 17:33:08;;;;;;;7.85;7.13;;;21.80;99.90;;;;;;5043666;28;20120;-51
2022/08/17 17:35:35;;;;;;;9.10;7.57;;;21.80;99.90;;;;;;5049379;28;20037;-48
2022/08/17 17:38:01;;;;;;;10.20;8.50;;;21.70;99.90;;;;;;5050062;28;20381;-42
2022/08/17 17:40:28;;;;;;;9.40;8.40;;;21.70;99.90;;;;;;5050217;28;20047;-44
2022/08/17 17:42:55;;;;;;;8.75;7.85;;;21.70;99.90;;;;;;5054475;28;20476;-45
2022/08/17 17:45:34;;;;;;;9.10;8.18;;;21.60;99.90;;;;;;5049822;28;20362;-53
2022/08/17 17:48:01;;;;;;;10.18;7.88;;;21.60;99.90;;;;;;5051420;28;20042;-46
2022/08/17 17:50:28;;;;;;;10.93;8.73;;;21.50;99.90;;;;;;5050105;28;20531;-51
2022/08/17 17:52:55;;;;;;;8.75;7.85;;;21.50;99.90;;;;;;5049974;28;20075;-50
2022/08/17 17:55:21;;;;;;;9.38;7.82;;;21.40;99.90;;;;;;5049683;28;20049;-51
2022/08/17 17:57:49;;;;;;;9.30;8.30;;;21.40;99.90;;;;;;5043480;28;20037;-45
2022/08/17 18:00:16;;;;;;;8.98;7.82;;;21.40;99.90;;;;;;5043074;28;20530;-45
2022/08/17 18:02:45;;;;;;;10.25;7.55;;;21.40;99.90;;;;;;5051983;28;20048;-49
2022/08/17 18:05:17;;;;;;;10.45;7.82;;;21.50;99.90;;;;;;5049689;28;20030;-50
2022/08/17 18:07:45;;;;;;;10.13;8.68;;;21.60;99.90;;;;;;5050263;28;20088;-52
2022/08/17 18:10:13;;;;;;;11.52;9.00;;;21.50;99.90;;;;;;5049567;28;20132;-52
2022/08/17 18:12:55;;;;;;;10.00;8.50;;;21.50;99.90;;;;;;5033958;28;20080;-50
2022/08/17 18:15:22;;;;;;;11.63;8.52;;;21.40;99.90;;;;;;5049111;28;20045;-47
2022/08/17 18:17:49;;;;;;;10.52;8.25;;;21.40;99.90;;;;;;5048100;28;20045;-53
2022/08/17 18:20:18;;;;;;;10.88;8.52;;;21.50;99.90;;;;;;5049400;28;20099;-53
2022/08/17 18:23:01;;;;;;;9.35;8.45;;;21.40;99.90;;;;;;5051277;28;20424;-52
2022/08/17 18:25:28;;;;;;;13.10;9.15;;;21.40;99.90;;;;;;5049304;28;20064;-45
2022/08/17 18:27:54;;;;;;;10.23;8.63;;;21.40;99.90;;;;;;5048695;28;20045;-46
2022/08/17 18:30:21;;;;;;;10.65;9.02;;;21.40;99.90;;;;;;5046094;28;20076;-47
2022/08/17 18:32:48;;;;;;;11.02;8.88;;;21.30;99.90;;;;;;5036138;28;20408;-46
2022/08/17 18:35:15;;;;;;;10.63;8.82;;;21.30;99.90;;;;;;5035712;28;20144;-52
2022/08/17 18:37:41;;;;;;;9.65;8.68;;;21.30;99.90;;;;;;5035733;28;20053;-47
2022/08/17 18:40:08;;;;;;;15.05;10.15;;;21.30;99.90;;;;;;5035803;28;20038;-50
2022/08/17 18:42:37;;;;;;;9.60;8.60;;;21.20;99.90;;;;;;5035236;28;20095;-50
2022/08/17 18:45:04;;;;;;;11.05;9.80;;;21.20;99.90;;;;;;5035689;28;20044;-52
2022/08/17 18:47:31;;;;;;;11.52;9.55;;;21.10;99.90;;;;;;5035608;28;20113;-45
2022/08/17 18:49:58;;;;;;;11.95;9.90;;;21.10;99.90;;;;;;5035615;28;20045;-48
2022/08/17 18:52:26;;;;;;;15.15;10.00;;;21.10;99.90;;;;;;5035464;28;20049;-55
2022/08/17 18:54:53;;;;;;;12.05;10.60;;;21.00;99.90;;;;;;5035601;28;20063;-49
2022/08/17 18:57:20;;;;;;;12.10;10.55;;;21.00;99.90;;;;;;5035499;28;20403;-54
2022/08/17 18:59:47;;;;;;;11.90;10.70;;;21.00;99.90;;;;;;5035409;28;20048;-52
2022/08/17 19:02:14;;;;;;;15.85;11.15;;;21.00;99.90;;;;;;5035427;28;20034;-47
2022/08/17 19:04:51;;;;;;;11.77;10.65;;;21.00;99.90;;;;;;5035312;28;20091;-49
2022/08/17 19:07:18;;;;;;;13.95;10.85;;;21.00;99.90;;;;;;5035291;28;20117;-53
2022/08/17 19:09:45;;;;;;;14.93;11.38;;;20.90;99.90;;;;;;5035304;28;20045;-50
2022/08/17 19:12:12;;;;;;;12.95;11.38;;;20.90;99.90;;;;;;5035520;28;20051;-51
2022/08/17 19:14:39;;;;;;;13.65;11.23;;;20.90;99.90;;;;;;5038345;28;20080;-43
2022/08/17 19:17:06;;;;;;;14.07;11.40;;;20.80;99.90;;;;;;5033821;28;20559;-48
2022/08/17 19:19:32;;;;;;;12.65;11.35;;;20.80;99.90;;;;;;5037732;28;20061;-46
2022/08/17 19:21:59;;;;;;;13.18;11.57;;;20.80;99.90;;;;;;5034917;28;20072;-48
2022/08/17 19:24:26;;;;;;;11.95;10.70;;;20.70;99.90;;;;;;5033804;28;20037;-48
2022/08/17 19:26:53;;;;;;;12.07;10.85;;;20.80;99.90;;;;;;5034913;28;20037;-50
2022/08/17 19:29:22;;;;;;;11.65;10.43;;;20.80;99.90;;;;;;5034849;28;20041;-45
2022/08/17 19:31:49;;;;;;;12.13;9.75;;;20.80;99.90;;;;;;5036382;28;20052;-43
2022/08/17 19:34:16;;;;;;;12.38;9.65;;;20.80;99.90;;;;;;5034703;28;20137;-49
2022/08/17 19:36:58;;;;;;;9.88;8.88;;;20.70;99.90;;;;;;5034598;28;20132;-52
2022/08/17 19:39:25;;;;;;;13.68;9.15;;;20.70;99.90;;;;;;5034241;28;20061;-53
2022/08/17 19:42:04;;;;;;;10.07;8.68;;;20.70;99.90;;;;;;5033782;28;20056;-48
2022/08/17 19:44:31;;;;;;;11.82;8.95;;;20.70;99.90;;;;;;5034221;28;20063;-51
2022/08/17 19:46:57;;;;;;;11.30;8.80;;;20.70;99.90;;;;;;5033207;28;20045;-49
2022/08/17 19:49:31;;;;;;;9.95;8.95;;;20.60;99.90;;;;;;5034475;28;20526;-52
2022/08/17 19:52:07;;;;;;;9.73;8.73;;;20.60;99.90;;;;;;5034053;28;20049;-50
2022/08/17 19:54:34;;;;;;;11.70;8.73;;;20.60;99.90;;;;;;5034439;28;20045;-51
2022/08/17 19:57:01;;;;;;;11.00;9.52;;;20.60;99.90;;;;;;5039655;28;20045;-45
2022/08/17 19:59:28;;;;;;;9.63;8.63;;;20.60;99.90;;;;;;5023285;28;20057;-52
2022/08/17 20:02:02;;;;;;;10.85;7.95;;;20.60;99.90;;;;;;5028730;28;20137;-50
2022/08/17 20:04:28;;;;;;;10.10;9.00;;;20.60;99.90;;;;;;5032950;28;20088;-49
2022/08/17 20:06:58;;;;;;;12.57;9.45;;;20.60;99.90;;;;;;5034225;28;20042;-49
2022/08/17 20:09:24;;;;;;;10.70;9.60;;;20.60;99.90;;;;;;5038422;28;20095;-46
2022/08/17 20:11:59;;;;;;;11.80;9.45;;;20.70;99.90;;;;;;5034319;28;20052;-50
2022/08/17 20:14:26;;;;;;;10.13;9.05;;;20.70;99.90;;;;;;5034062;28;20041;-46
2022/08/17 20:16:52;;;;;;;11.13;9.00;;;20.60;99.90;;;;;;5034086;28;20456;-49
2022/08/17 20:19:19;;;;;;;12.93;9.43;;;20.70;99.90;;;;;;5033835;28;20054;-49
2022/08/17 20:21:46;;;;;;;10.23;9.20;;;20.70;99.90;;;;;;5032674;28;20037;-49
2022/08/17 20:24:13;;;;;;;10.77;9.45;;;20.60;99.90;;;;;;5038078;28;20072;-49
2022/08/17 20:26:39;;;;;;;10.57;9.50;;;20.60;99.90;;;;;;5033719;28;20049;-47
2022/08/17 20:29:21;;;;;;;12.48;10.52;;;20.60;99.90;;;;;;5033835;28;20502;-46
2022/08/17 20:32:06;;;;;;;10.93;9.82;;;20.50;99.90;;;;;;5033817;28;20076;-49
2022/08/17 20:34:32;;;;;;;12.27;10.15;;;20.50;99.90;;;;;;5036648;28;20037;-46
2022/08/17 20:37:03;;;;;;;12.90;11.45;;;20.40;99.90;;;;;;5033627;28;20077;-47
2022/08/17 20:39:34;;;;;;;12.82;11.30;;;20.40;99.90;;;;;;5032302;28;20095;-48
2022/08/17 20:42:01;;;;;;;14.48;11.52;;;20.30;99.90;;;;;;5033614;28;20069;-45
2022/08/17 20:44:28;;;;;;;13.55;11.52;;;20.20;99.90;;;;;;5033604;28;20043;-48
2022/08/17 20:46:55;;;;;;;16.33;11.98;;;20.20;99.90;;;;;;5033491;28;20476;-51
2022/08/17 20:49:22;;;;;;;14.13;11.18;;;20.20;99.90;;;;;;5033503;28;20041;-47
2022/08/17 20:51:48;;;;;;;14.75;11.98;;;20.10;99.90;;;;;;5033511;28;20477;-50
2022/08/17 20:54:27;;;;;;;13.75;12.30;;;20.10;99.90;;;;;;5033302;28;20033;-51
2022/08/17 20:56:56;;;;;;;16.70;12.52;;;20.10;99.90;;;;;;5031689;28;20496;-47
2022/08/17 20:59:24;;;;;;;13.10;11.88;;;20.10;99.90;;;;;;5032815;28;20033;-48
2022/08/17 21:01:51;;;;;;;14.93;13.15;;;20.10;99.90;;;;;;5033120;28;20037;-45
2022/08/17 21:04:18;;;;;;;17.13;13.00;;;20.00;99.90;;;;;;5033935;28;20484;-48
2022/08/17 21:06:45;;;;;;;14.20;12.55;;;20.10;99.90;;;;;;5033113;28;20033;-47
2022/08/17 21:09:12;;;;;;;14.43;12.95;;;20.10;99.90;;;;;;5032707;28;20077;-47
2022/08/17 21:11:39;;;;;;;17.00;12.48;;;20.10;99.90;;;;;;5033136;28;20100;-49
